Time;durP1;ratioP1;P1;durP2;ratioP2;P2;SDS_P1;SDS_P2;PMS_P1;PMS_P2;Temp;Humidity;BMP_temperature;BMP_pressure;BME280_temperature;BME280_humidity;BME280_pressure;Samples;Min_cycle;Max_cycle;Signal;HPM_P1;HPM_P2
2021/04/23 00:00:57;;;;;;;12.98;3.30;;;6.30;99.90;;;;;;4937733;29;20062;-83
2021/04/23 00:03:27;;;;;;;9.70;3.50;;;6.30;99.90;;;;;;4938057;29;20051;-83
2021/04/23 00:05:56;;;;;;;12.32;3.85;;;6.30;99.90;;;;;;4938551;29;20048;-83
2021/04/23 00:08:22;;;;;;;14.20;3.28;;;6.20;99.90;;;;;;4939445;29;20056;-83
2021/04/23 00:10:49;;;;;;;9.13;3.90;;;6.20;99.90;;;;;;4939776;29;20066;-82
2021/04/23 00:13:16;;;;;;;8.80;3.60;;;6.20;99.90;;;;;;4939489;29;20058;-83
2021/04/23 00:15:43;;;;;;;8.05;3.00;;;6.20;99.90;;;;;;4940818;29;20058;-83
2021/04/23 00:18:10;;;;;;;12.02;3.30;;;6.10;99.90;;;;;;4941156;29;20058;-83
2021/04/23 00:20:37;;;;;;;11.18;3.42;;;6.10;99.90;;;;;;4943698;29;20062;-82
2021/04/23 00:23:05;;;;;;;15.32;3.58;;;6.10;99.90;;;;;;4946576;29;20055;-82
2021/04/23 00:25:31;;;;;;;12.13;4.20;;;6.10;99.90;;;;;;4944531;29;20051;-83
2021/04/23 00:28:00;;;;;;;10.80;3.42;;;6.10;99.90;;;;;;4953360;29;20062;-82
2021/04/23 00:30:27;;;;;;;9.05;2.88;;;6.10;99.90;;;;;;4953438;29;20074;-82
2021/04/23 00:32:54;;;;;;;9.45;3.55;;;6.10;99.90;;;;;;4951768;29;20056;-82
2021/04/23 00:35:22;;;;;;;11.25;3.40;;;6.10;99.90;;;;;;4951971;29;20484;-81
2021/04/23 00:37:49;;;;;;;10.15;3.53;;;6.10;99.90;;;;;;4951909;29;20102;-81
2021/04/23 00:40:18;;;;;;;7.95;2.45;;;6.10;99.90;;;;;;4951286;29;20047;-82
2021/04/23 00:42:44;;;;;;;8.13;2.70;;;6.10;99.90;;;;;;4950212;29;20062;-82
2021/04/23 00:45:12;;;;;;;7.40;2.28;;;6.10;99.90;;;;;;4950742;29;20054;-82
2021/04/23 00:47:38;;;;;;;5.95;3.25;;;6.00;99.90;;;;;;4952622;29;20078;-82
2021/04/23 00:50:06;;;;;;;8.27;2.67;;;6.00;99.90;;;;;;4955167;29;20113;-82
2021/04/23 00:52:34;;;;;;;3.88;1.90;;;5.90;99.90;;;;;;4959886;29;20138;-82
2021/04/23 00:55:01;;;;;;;7.47;2.88;;;5.80;99.90;;;;;;4962911;28;20099;-82
2021/04/23 02:22:22;;;;;;;4.95;1.45;;;4.70;99.90;;;;;;6052925;23;20693;31
2021/04/23 02:24:52;;;;;;;4.72;1.65;;;4.70;99.90;;;;;;4902053;29;20110;-83
2021/04/23 02:27:19;;;;;;;5.53;1.88;;;;;;;;;;5158925;23;20107;-87
2021/04/23 02:29:52;;;;;;;6.78;1.63;;;4.70;99.90;;;;;;4978841;29;20139;-87
2021/04/23 02:32:20;;;;;;;8.38;2.03;;;;;;;;;;5790893;23;20078;-88
2021/04/23 03:47:17;;;;;;;3.95;1.52;;;4.10;99.90;;;;;;5595894;23;20062;-83
2021/04/23 03:49:44;;;;;;;5.18;1.95;;;4.10;99.90;;;;;;4976231;29;20090;-83
2021/04/23 03:52:11;;;;;;;4.20;1.80;;;4.00;99.90;;;;;;4976319;29;20147;-81
2021/04/23 03:54:37;;;;;;;5.07;1.60;;;4.10;99.90;;;;;;4976263;29;20079;-81
2021/04/23 03:57:05;;;;;;;4.57;1.63;;;4.00;99.90;;;;;;4975991;29;20051;-81
2021/04/23 03:59:31;;;;;;;7.85;2.13;;;4.00;99.90;;;;;;4974796;29;20190;-81
2021/04/23 04:01:58;;;;;;;5.18;2.10;;;4.00;99.90;;;;;;4977145;28;20055;-81
2021/04/23 04:04:25;;;;;;;7.75;1.92;;;4.00;99.90;;;;;;4979068;29;20123;-81
2021/04/23 04:06:52;;;;;;;5.53;1.70;;;4.00;99.90;;;;;;4978883;29;20057;-81
2021/04/23 04:09:19;;;;;;;7.10;1.80;;;4.00;99.90;;;;;;4978925;29;20051;-81
2021/04/23 04:11:46;;;;;;;3.03;1.10;;;4.00;99.90;;;;;;4979155;29;20082;-81
2021/04/23 04:14:12;;;;;;;6.25;1.90;;;4.00;99.90;;;;;;4979056;29;20071;-81
2021/04/23 04:16:39;;;;;;;5.05;1.48;;;4.00;99.90;;;;;;4978634;29;20031;-80
2021/04/23 04:19:06;;;;;;;6.50;2.28;;;4.00;99.90;;;;;;4978288;29;20111;-81
2021/04/23 04:21:33;;;;;;;15.02;1.90;;;4.00;99.90;;;;;;4978655;29;20061;-81
2021/04/23 04:24:00;;;;;;;5.47;1.65;;;4.00;99.90;;;;;;4978240;29;20059;-81
2021/04/23 04:26:26;;;;;;;7.07;2.05;;;4.00;99.90;;;;;;4978688;29;20107;-81
2021/04/23 04:28:53;;;;;;;4.90;1.98;;;3.90;99.90;;;;;;4978575;29;20134;-81
2021/04/23 04:31:20;;;;;;;3.45;1.52;;;3.80;99.90;;;;;;4978162;29;20138;-81
2021/04/23 04:33:46;;;;;;;9.38;1.70;;;3.80;99.90;;;;;;4978503;29;20110;-81
2021/04/23 04:36:13;;;;;;;6.10;2.75;;;3.80;99.90;;;;;;4979409;29;20111;-81
2021/04/23 04:38:40;;;;;;;7.65;2.30;;;3.80;99.90;;;;;;4978937;29;20035;-81
2021/04/23 04:41:17;;;;;;;10.57;2.90;;;3.80;99.90;;;;;;4978031;29;20051;-81
2021/04/23 04:43:43;;;;;;;6.15;1.55;;;3.80;99.90;;;;;;4976287;29;20377;-81
2021/04/23 04:46:10;;;;;;;3.20;1.95;;;3.80;99.90;;;;;;4976762;29;20051;-81
2021/04/23 04:48:37;;;;;;;9.95;3.15;;;3.80;99.90;;;;;;4977294;29;20059;-81
2021/04/23 04:51:04;;;;;;;6.10;1.90;;;3.80;99.90;;;;;;4977171;29;20125;-81
2021/04/23 04:53:31;;;;;;;7.00;1.33;;;3.80;99.90;;;;;;4976389;29;20452;-81
2021/04/23 04:55:59;;;;;;;8.82;1.67;;;3.80;99.90;;;;;;4976605;29;20393;-81
2021/04/23 04:58:27;;;;;;;6.35;1.50;;;3.80;99.90;;;;;;4977802;29;20059;-81
2021/04/23 05:00:53;;;;;;;5.40;1.73;;;3.80;99.90;;;;;;4978079;29;20142;-81
2021/04/23 05:03:20;;;;;;;4.13;1.83;;;3.70;99.90;;;;;;4978107;29;20136;-81
2021/04/23 05:05:47;;;;;;;7.53;1.77;;;3.70;99.90;;;;;;4978293;29;20051;-81
2021/04/23 05:08:13;;;;;;;16.67;1.95;;;3.70;99.90;;;;;;4977900;29;20110;-80
2021/04/23 05:10:40;;;;;;;9.80;2.03;;;3.70;99.90;;;;;;4978159;29;20047;-81
2021/04/23 05:13:07;;;;;;;4.65;1.88;;;3.70;99.90;;;;;;4977282;28;20047;-81
2021/04/23 05:15:34;;;;;;;4.57;1.92;;;3.70;99.90;;;;;;4977682;29;20074;-81
2021/04/23 05:18:00;;;;;;;5.80;1.67;;;3.70;99.90;;;;;;4977697;29;20110;-81
2021/04/23 05:20:27;;;;;;;9.95;1.80;;;3.70;99.90;;;;;;4978266;29;20132;-81
2021/04/23 05:22:54;;;;;;;7.32;1.60;;;3.70;99.90;;;;;;4979144;29;20131;-81
2021/04/23 05:25:21;;;;;;;9.40;1.85;;;3.80;99.90;;;;;;4978724;29;20137;-81
2021/04/23 05:27:48;;;;;;;5.53;1.77;;;3.80;99.90;;;;;;4978708;29;20031;-81
2021/04/23 05:30:17;;;;;;;5.05;2.65;;;3.80;99.90;;;;;;4978675;29;20057;-81
2021/04/23 05:32:44;;;;;;;6.30;1.85;;;3.90;99.90;;;;;;4978179;29;20106;-81
2021/04/23 05:35:11;;;;;;;4.78;1.73;;;3.90;99.90;;;;;;4978141;29;20114;-81
2021/04/23 05:37:38;;;;;;;13.40;2.63;;;3.90;99.90;;;;;;4977915;29;20108;-81
2021/04/23 05:40:05;;;;;;;5.95;2.08;;;4.00;99.90;;;;;;4970152;28;20547;-81
2021/04/23 05:42:32;;;;;;;18.10;2.50;;;4.00;99.90;;;;;;4959021;29;20051;-81
2021/04/23 05:44:58;;;;;;;10.63;2.33;;;4.00;99.90;;;;;;4959003;29;20396;-81
2021/04/23 05:47:26;;;;;;;5.90;2.00;;;4.00;99.90;;;;;;4958693;29;20119;-81
2021/04/23 05:49:53;;;;;;;8.95;2.85;;;4.00;99.90;;;;;;4958209;29;20107;-81
2021/04/23 05:52:20;;;;;;;7.55;1.80;;;4.00;99.90;;;;;;4958345;29;20042;-81
2021/04/23 05:54:46;;;;;;;6.68;1.85;;;4.00;99.90;;;;;;4958669;29;20111;-81
2021/04/23 05:57:13;;;;;;;12.85;2.00;;;4.00;99.90;;;;;;4957180;29;20107;-81
2021/04/23 05:59:40;;;;;;;6.53;2.28;;;4.00;99.90;;;;;;4956673;29;20051;-81
2021/04/23 06:02:06;;;;;;;16.23;1.77;;;4.00;99.90;;;;;;4956456;29;20107;-81
2021/04/23 06:04:34;;;;;;;9.15;1.80;;;4.10;99.90;;;;;;4956823;29;20123;-81
2021/04/23 06:07:00;;;;;;;3.65;1.35;;;4.10;99.90;;;;;;4956702;29;20047;-81
2021/04/23 06:09:27;;;;;;;5.60;1.73;;;4.20;99.90;;;;;;4956225;29;20111;-81
2021/04/23 06:11:53;;;;;;;5.57;1.63;;;4.30;99.90;;;;;;4956402;29;20115;-81
2021/04/23 06:14:22;;;;;;;4.10;1.88;;;4.40;99.90;;;;;;4957134;29;20111;-81
2021/04/23 06:16:49;;;;;;;8.52;2.33;;;4.40;99.90;;;;;;4956622;29;20051;-80
2021/04/23 06:19:15;;;;;;;3.45;2.00;;;4.50;99.90;;;;;;4956674;29;20139;-81
2021/04/23 06:21:43;;;;;;;14.13;2.92;;;4.60;99.90;;;;;;4956863;29;20132;-81
2021/04/23 06:24:10;;;;;;;9.77;3.38;;;4.70;99.90;;;;;;4955902;29;20135;-81
2021/04/23 06:26:36;;;;;;;6.75;1.75;;;4.80;99.90;;;;;;4958515;29;20062;-81
2021/04/23 06:29:03;;;;;;;3.65;1.48;;;4.90;99.90;;;;;;4960443;28;20132;-81
2021/04/23 06:31:30;;;;;;;5.13;1.10;;;5.00;99.90;;;;;;4958613;29;20524;-81
2021/04/23 06:33:56;;;;;;;5.65;0.95;;;5.00;99.90;;;;;;4958308;29;20087;-81
2021/04/23 06:36:23;;;;;;;5.05;1.25;;;5.10;99.90;;;;;;4959327;29;20043;-81
2021/04/23 06:38:50;;;;;;;1.40;0.93;;;5.10;99.90;;;;;;4960595;29;20116;-81
2021/04/23 06:41:17;;;;;;;8.30;1.63;;;5.20;99.90;;;;;;4958820;29;20115;-81
2021/04/23 06:43:44;;;;;;;4.45;1.35;;;5.30;99.90;;;;;;4959120;29;20091;-81
2021/04/23 06:46:11;;;;;;;3.70;0.80;;;5.40;99.90;;;;;;4957962;29;20090;-81
2021/04/23 06:48:37;;;;;;;2.42;0.80;;;5.60;99.90;;;;;;4958270;29;20454;-81
2021/04/23 06:51:05;;;;;;;1.92;1.05;;;5.80;99.90;;;;;;4947316;29;20052;-81
2021/04/23 06:53:32;;;;;;;1.35;0.65;;;5.90;99.90;;;;;;4944227;29;20052;-81
2021/04/23 06:56:01;;;;;;;4.70;0.82;;;6.00;99.90;;;;;;4944963;29;20449;-83
2021/04/23 06:58:28;;;;;;;3.45;0.88;;;6.10;99.90;;;;;;4942888;29;20422;-81
2021/04/23 07:00:54;;;;;;;4.47;1.55;;;6.20;99.90;;;;;;4940425;29;20052;-81
2021/04/23 07:03:21;;;;;;;2.85;0.80;;;6.30;99.90;;;;;;4940148;29;20062;-81
2021/04/23 07:05:47;;;;;;;1.42;0.75;;;6.50;99.90;;;;;;4938056;29;20043;-82
2021/04/23 07:08:15;;;;;;;2.03;1.00;;;6.60;99.90;;;;;;4937561;29;20051;-83
2021/04/23 07:10:41;;;;;;;3.33;0.70;;;6.80;99.90;;;;;;4937680;29;20077;-82
2021/04/23 07:13:09;;;;;;;2.17;0.80;;;6.90;99.90;;;;;;4937668;29;20056;-82
2021/04/23 07:15:36;;;;;;;2.17;0.85;;;7.30;99.90;;;;;;4937549;29;20048;-85
2021/04/23 07:18:02;;;;;;;3.38;0.65;;;8.30;99.90;;;;;;4937242;29;20451;-85
2021/04/23 07:20:29;;;;;;;6.50;0.98;;;10.40;99.90;;;;;;4937521;29;20105;-85
2021/04/23 07:22:56;;;;;;;1.23;0.40;;;14.00;99.90;;;;;;4937272;29;20056;-84
2021/04/23 07:25:22;;;;;;;3.15;0.88;;;17.60;68.10;;;;;;4937314;29;20066;-82
2021/04/23 07:27:49;;;;;;;3.15;1.02;;;20.50;68.60;;;;;;4937427;29;20051;-82
2021/04/23 07:30:19;;;;;;;4.43;1.08;;;23.00;62.30;;;;;;4937234;29;20392;-82
2021/04/23 07:32:45;;;;;;;2.05;0.55;;;25.00;54.10;;;;;;4937184;29;20063;-83
2021/04/23 07:35:13;;;;;;;2.75;0.68;;;26.60;54.50;;;;;;4938193;29;20048;-83
2021/04/23 07:37:40;;;;;;;1.98;0.85;;;27.90;50.50;;;;;;4941096;29;20048;-83
2021/04/23 07:40:07;;;;;;;7.80;0.80;;;28.70;48.10;;;;;;4941036;29;20460;-83
2021/04/23 07:42:34;;;;;;;2.10;0.70;;;29.70;48.00;;;;;;4940992;29;20115;-83
2021/04/23 07:45:02;;;;;;;3.45;0.98;;;30.10;45.50;;;;;;4941174;29;20048;-83
2021/04/23 07:47:29;;;;;;;2.92;1.23;;;30.40;41.80;;;;;;4940790;29;20107;-82
2021/04/23 07:49:56;;;;;;;2.60;1.02;;;30.40;43.00;;;;;;4940850;29;20061;-82
2021/04/23 07:52:22;;;;;;;3.75;1.10;;;29.80;36.20;;;;;;4940934;29;20055;-83
2021/04/23 07:54:49;;;;;;;5.18;1.25;;;27.80;34.80;;;;;;4940792;29;20061;-83
2021/04/23 07:57:16;;;;;;;3.38;1.25;;;24.70;37.30;;;;;;4940675;29;20055;-83
2021/04/23 07:59:43;;;;;;;4.72;1.08;;;21.90;41.90;;;;;;4940878;29;20052;-83
2021/04/23 08:02:10;;;;;;;6.13;1.40;;;19.50;44.20;;;;;;4940623;29;20059;-82
2021/04/23 08:04:39;;;;;;;3.72;0.82;;;17.50;47.40;;;;;;4940879;29;20056;-82
2021/04/23 08:07:06;;;;;;;2.28;1.10;;;16.00;50.50;;;;;;4940531;29;20055;-82
2021/04/23 08:09:32;;;;;;;3.25;1.30;;;15.00;51.90;;;;;;4940440;29;20051;-82
2021/04/23 08:11:59;;;;;;;1.63;0.82;;;14.10;53.50;;;;;;4940413;29;20066;-82
2021/04/23 08:14:26;;;;;;;5.03;1.25;;;13.50;54.70;;;;;;4940320;29;20516;-83
2021/04/23 08:16:52;;;;;;;2.13;1.10;;;12.90;56.20;;;;;;4940324;29;20062;-83
2021/04/23 08:19:19;;;;;;;2.92;1.00;;;12.50;57.40;;;;;;4940661;29;20055;-84
2021/04/23 08:21:47;;;;;;;1.50;0.68;;;12.20;56.80;;;;;;4940251;29;20098;-83
2021/04/23 08:24:14;;;;;;;4.03;1.30;;;12.00;58.00;;;;;;4940413;29;20082;-84
2021/04/23 08:26:42;;;;;;;1.58;1.15;;;11.70;57.80;;;;;;4940514;29;20123;-84
2021/04/23 08:29:10;;;;;;;3.72;0.98;;;11.60;57.30;;;;;;4940102;29;20048;-84
2021/04/23 08:31:37;;;;;;;5.50;1.75;;;11.50;58.00;;;;;;4940203;29;20139;-85
2021/04/23 08:34:04;;;;;;;3.97;1.25;;;11.30;58.60;;;;;;4940317;29;20048;-85
2021/04/23 08:36:30;;;;;;;6.40;1.38;;;11.20;58.20;;;;;;4939806;29;20512;-85
2021/04/23 08:38:58;;;;;;;2.63;0.93;;;11.10;58.20;;;;;;4939966;28;20115;-84
2021/04/23 08:41:24;;;;;;;1.33;0.68;;;11.00;59.70;;;;;;4939913;29;20465;-85
2021/04/23 08:43:51;;;;;;;3.33;1.08;;;10.90;58.90;;;;;;4939798;29;20122;-85
2021/04/23 08:46:18;;;;;;;5.65;1.65;;;10.90;58.90;;;;;;4939727;29;20047;-85
2021/04/23 08:48:44;;;;;;;3.90;0.90;;;10.80;60.00;;;;;;4939391;29;20122;-85
2021/04/23 08:51:11;;;;;;;1.35;0.70;;;10.80;59.70;;;;;;4939876;29;20073;-85
2021/04/23 08:53:38;;;;;;;2.30;1.33;;;10.80;59.80;;;;;;4939576;29;20056;-85
2021/04/23 08:56:06;;;;;;;2.15;0.82;;;10.80;59.80;;;;;;4939485;29;20047;-85
2021/04/23 08:58:33;;;;;;;1.75;0.57;;;10.80;59.10;;;;;;4939684;29;20084;-85
2021/04/23 09:01:00;;;;;;;0.98;0.77;;;10.80;60.50;;;;;;4939551;29;20047;-86
2021/04/23 09:03:27;;;;;;;3.75;0.68;;;10.70;60.70;;;;;;4939706;29;20051;-86
2021/04/23 09:06:10;;;;;;;0.68;0.65;;;10.70;61.00;;;;;;4939770;29;20453;-85
2021/04/23 09:08:38;;;;;;;1.20;0.52;;;10.70;61.10;;;;;;4939421;29;20052;-85
2021/04/23 09:11:18;;;;;;;8.32;0.95;;;10.70;63.10;;;;;;4939561;29;20051;-85
2021/04/23 09:13:50;;;;;;;1.33;0.65;;;10.80;61.60;;;;;;4939435;29;20052;-85
2021/04/23 09:16:18;;;;;;;2.08;0.60;;;10.90;60.80;;;;;;4939207;29;20052;-85
2021/04/23 09:18:45;;;;;;;3.30;0.80;;;11.00;62.10;;;;;;4939578;29;20081;-85
2021/04/23 09:21:14;;;;;;;2.20;0.68;;;11.00;63.70;;;;;;4939488;29;20059;-85
2021/04/23 09:23:48;;;;;;;1.27;0.65;;;11.10;61.70;;;;;;4939202;29;20060;-86
2021/04/23 09:26:31;;;;;;;1.73;0.73;;;11.20;60.70;;;;;;4939483;29;20058;-84
2021/04/23 09:28:57;;;;;;;2.33;0.88;;;11.20;60.90;;;;;;4937721;29;20063;-86
2021/04/23 09:31:25;;;;;;;1.10;0.68;;;11.20;60.40;;;;;;4938661;29;20429;-85
2021/04/23 09:33:52;;;;;;;4.53;1.45;;;11.20;60.60;;;;;;4938719;29;20057;-86
2021/04/23 09:36:30;;;;;;;2.42;0.82;;;11.20;59.70;;;;;;4938944;29;20058;-86
2021/04/23 09:39:07;;;;;;;2.47;0.60;;;11.20;60.80;;;;;;4938968;29;20150;-86
2021/04/23 09:41:35;;;;;;;3.22;0.88;;;11.20;60.50;;;;;;4939197;29;20052;-86
2021/04/23 09:44:01;;;;;;;3.35;1.40;;;11.30;61.10;;;;;;4938606;29;20079;-86
2021/04/23 09:46:35;;;;;;;2.05;0.68;;;11.30;62.80;;;;;;4939025;29;20151;-86
2021/04/23 09:49:18;;;;;;;2.47;0.50;;;11.30;62.20;;;;;;4938591;29;20094;-86
2021/04/23 09:51:44;;;;;;;0.57;0.20;;;11.20;63.30;;;;;;4938746;29;20047;-86
2021/04/23 09:54:15;;;;;;;0.85;0.20;;;11.30;59.10;;;;;;4938564;29;20051;-86
2021/04/23 09:56:42;;;;;;;2.60;0.20;;;11.50;59.30;;;;;;4938578;29;20052;-86
2021/04/23 09:59:19;;;;;;;0.95;0.30;;;11.60;57.60;;;;;;4938753;29;20059;-86
2021/04/23 10:01:54;;;;;;;0.65;0.22;;;11.80;55.90;;;;;;4938640;29;20149;-86
2021/04/23 10:04:25;;;;;;;4.88;0.52;;;12.00;53.90;;;;;;4938455;29;20380;-86
2021/04/23 10:07:12;;;;;;;1.25;0.75;;;12.10;57.80;;;;;;4938662;29;20047;-86
2021/04/23 10:09:47;;;;;;;2.15;0.52;;;12.30;58.60;;;;;;4938329;29;20524;-86
2021/04/23 10:12:20;;;;;;;1.00;0.47;;;12.30;55.60;;;;;;4938203;29;20051;-86
2021/04/23 10:14:56;;;;;;;2.97;0.93;;;12.30;55.00;;;;;;4938201;29;20052;-85
2021/04/23 10:17:22;;;;;;;1.40;0.60;;;12.40;56.50;;;;;;4938010;29;20048;-86
2021/04/23 10:19:49;;;;;;;4.43;0.73;;;12.40;55.00;;;;;;4938313;29;20082;-86
2021/04/23 10:22:16;;;;;;;1.58;0.40;;;12.40;55.60;;;;;;4937253;29;20515;-86
2021/04/23 10:24:42;;;;;;;0.43;0.38;;;12.50;55.30;;;;;;4938101;29;20102;-86
2021/04/23 10:27:09;;;;;;;3.13;0.75;;;12.50;53.40;;;;;;4938142;29;20392;-86
2021/04/23 10:29:36;;;;;;;1.35;0.60;;;12.50;53.30;;;;;;4937822;29;20056;-86
2021/04/23 10:32:04;;;;;;;0.40;0.30;;;12.60;52.40;;;;;;4937986;29;20066;-85
2021/04/23 10:34:32;;;;;;;1.65;0.30;;;12.70;51.70;;;;;;4938134;29;20052;-85
2021/04/23 10:36:59;;;;;;;7.88;2.10;;;12.70;50.00;;;;;;4937790;29;20047;-85
2021/04/23 10:39:26;;;;;;;1.05;0.60;;;12.70;52.40;;;;;;4938192;29;20082;-85
2021/04/23 10:41:53;;;;;;;1.92;0.75;;;12.70;51.80;;;;;;4937747;29;20066;-85
2021/04/23 10:44:22;;;;;;;1.13;0.73;;;12.70;52.10;;;;;;4937648;29;20073;-86
2021/04/23 10:46:51;;;;;;;1.80;0.50;;;12.80;50.00;;;;;;4938042;29;20056;-86
2021/04/23 10:49:18;;;;;;;1.48;0.43;;;12.90;50.80;;;;;;4937562;29;20482;-86
2021/04/23 10:51:45;;;;;;;0.93;0.38;;;13.00;52.00;;;;;;4941342;29;20055;-88
2021/04/23 10:54:14;;;;;;;2.25;0.73;;;12.90;52.20;;;;;;4938149;29;20197;-85
2021/04/23 10:56:48;;;;;;;1.88;0.68;;;12.90;51.80;;;;;;4937417;29;20047;-89
2021/04/23 10:59:29;;;;;;;1.10;0.85;;;13.00;52.50;;;;;;4937803;29;20138;-85
2021/04/23 11:02:13;;;;;;;3.45;0.80;;;13.10;51.30;;;;;;4937607;29;20420;-86
2021/04/23 11:04:56;;;;;;;1.20;0.32;;;13.10;51.10;;;;;;4937662;29;20056;-85
2021/04/23 11:07:22;;;;;;;0.95;0.32;;;13.20;50.10;;;;;;4937730;29;20044;-85
2021/04/23 11:09:59;;;;;;;0.68;0.40;;;13.20;49.40;;;;;;4937076;29;20058;-85
2021/04/23 11:12:27;;;;;;;0.47;0.30;;;13.10;51.10;;;;;;4937541;29;20062;-85
2021/04/23 11:15:13;;;;;;;0.75;0.50;;;13.10;51.00;;;;;;4937399;29;20139;-85
2021/04/23 11:17:40;;;;;;;0.68;0.25;;;13.20;52.30;;;;;;4937238;29;20047;-85
2021/04/23 11:20:23;;;;;;;2.70;1.90;;;13.30;49.20;;;;;;4937280;29;20146;-85
2021/04/23 11:22:54;;;;;;;0.73;0.40;;;13.40;50.70;;;;;;4937140;29;20048;-85
2021/04/23 11:25:21;;;;;;;4.70;1.20;;;13.40;49.50;;;;;;4936770;29;20056;-85
2021/04/23 11:28:07;;;;;;;2.22;0.40;;;13.50;50.20;;;;;;4937153;29;20048;-84
2021/04/23 11:31:04;;;;;;;0.90;0.40;;;13.60;48.50;;;;;;4937159;29;20047;-85
2021/04/23 11:33:50;;;;;;;0.73;0.50;;;13.70;48.90;;;;;;4937143;29;20522;-86
2021/04/23 11:36:28;;;;;;;1.13;0.22;;;13.70;48.40;;;;;;4937634;29;20400;-84
2021/04/23 11:38:59;;;;;;;1.23;0.63;;;13.70;47.90;;;;;;4937446;29;20062;-85
2021/04/23 11:41:27;;;;;;;0.65;0.30;;;13.70;49.60;;;;;;4937553;29;20099;-84
2021/04/23 11:43:53;;;;;;;1.25;0.30;;;13.80;46.30;;;;;;4937244;29;20051;-84
2021/04/23 11:46:20;;;;;;;1.25;0.40;;;13.90;46.30;;;;;;4937153;29;20374;-84
2021/04/23 11:48:52;;;;;;;1.42;0.40;;;13.90;48.50;;;;;;4937311;29;20070;-84
2021/04/23 11:51:18;;;;;;;1.30;0.40;;;14.00;46.20;;;;;;4937022;29;20062;-84
2021/04/23 11:53:49;;;;;;;1.13;0.25;;;14.00;47.60;;;;;;4936823;29;20060;-84
2021/04/23 11:56:15;;;;;;;5.53;0.45;;;14.00;48.40;;;;;;4936795;29;20440;-84
2021/04/23 11:58:43;;;;;;;1.75;0.52;;;14.00;48.40;;;;;;4935629;29;20055;-84
2021/04/23 12:01:09;;;;;;;2.30;0.55;;;14.00;47.90;;;;;;4936887;29;20052;-84
2021/04/23 12:03:36;;;;;;;1.67;0.40;;;14.00;47.20;;;;;;4936891;29;20381;-84
2021/04/23 12:06:04;;;;;;;1.17;0.40;;;13.90;47.80;;;;;;4937036;29;20047;-84
2021/04/23 12:08:31;;;;;;;1.05;0.40;;;13.80;47.80;;;;;;4936786;29;20066;-84
2021/04/23 12:10:58;;;;;;;0.50;0.30;;;13.80;48.70;;;;;;4937116;29;20085;-84
2021/04/23 12:13:26;;;;;;;2.13;0.40;;;13.80;48.70;;;;;;4937363;29;20085;-84
2021/04/23 12:15:56;;;;;;;0.80;0.40;;;13.80;46.90;;;;;;4937106;29;20048;-84
2021/04/23 12:18:22;;;;;;;1.23;0.30;;;13.90;47.00;;;;;;4937135;29;20138;-84
2021/04/23 12:20:50;;;;;;;0.43;0.30;;;14.00;46.40;;;;;;4936735;29;20061;-84
2021/04/23 12:23:19;;;;;;;0.80;0.50;;;14.20;46.90;;;;;;4939515;29;20055;-84
2021/04/23 12:25:46;;;;;;;2.20;0.38;;;14.20;48.40;;;;;;4940234;29;20090;-84
2021/04/23 12:28:24;;;;;;;0.68;0.22;;;14.10;48.00;;;;;;4940360;29;20473;-84
2021/04/23 12:30:52;;;;;;;0.90;0.45;;;14.20;47.00;;;;;;4940434;29;20117;-84
2021/04/23 12:33:18;;;;;;;2.83;0.52;;;14.30;44.70;;;;;;4940364;29;20048;-84
2021/04/23 12:35:46;;;;;;;0.85;0.30;;;14.40;45.60;;;;;;4940279;29;20060;-84
2021/04/23 12:38:15;;;;;;;0.93;0.40;;;14.50;47.50;;;;;;4940387;29;20098;-84
2021/04/23 12:40:44;;;;;;;1.65;0.50;;;14.50;47.10;;;;;;4939984;29;20467;-84
2021/04/23 12:43:18;;;;;;;0.82;0.50;;;14.50;46.00;;;;;;4940001;29;20062;-84
2021/04/23 12:45:47;;;;;;;1.70;0.57;;;14.60;45.80;;;;;;4940206;29;20059;-83
2021/04/23 12:48:14;;;;;;;1.27;0.43;;;14.60;45.60;;;;;;4939781;29;20062;-83
2021/04/23 12:50:41;;;;;;;2.40;0.50;;;14.60;45.40;;;;;;4939972;29;20048;-83
2021/04/23 12:53:08;;;;;;;0.85;0.32;;;14.70;45.70;;;;;;4939706;29;20113;-83
2021/04/23 12:55:34;;;;;;;6.40;2.20;;;14.70;45.10;;;;;;4939969;29;20051;-83
2021/04/23 12:58:02;;;;;;;3.10;1.00;;;14.80;46.50;;;;;;4940094;29;20044;-83
2021/04/23 13:00:30;;;;;;;2.15;0.40;;;14.80;46.40;;;;;;4939826;29;20058;-83
2021/04/23 13:02:57;;;;;;;1.33;0.50;;;14.80;46.00;;;;;;4939548;29;20465;-84
2021/04/23 13:05:24;;;;;;;1.45;0.70;;;15.00;44.90;;;;;;4939451;29;20062;-86
2021/04/23 13:07:52;;;;;;;3.33;0.65;;;15.10;44.20;;;;;;4939598;29;20372;-91
2021/04/23 13:10:21;;;;;;;3.40;1.02;;;15.20;46.40;;;;;;4939267;29;20138;-80
2021/04/23 13:12:48;;;;;;;2.05;1.10;;;15.20;47.00;;;;;;4939695;29;20055;-86
2021/04/23 13:15:27;;;;;;;2.42;1.05;;;15.20;47.70;;;;;;4939273;29;20051;-84
2021/04/23 13:17:57;;;;;;;2.13;0.63;;;15.20;47.80;;;;;;4939063;29;20083;-85
2021/04/23 13:20:26;;;;;;;1.40;0.70;;;15.30;46.10;;;;;;4939712;29;20066;-84
2021/04/23 13:22:53;;;;;;;3.60;1.70;;;15.30;46.70;;;;;;4939406;29;20396;-84
2021/04/23 13:25:21;;;;;;;1.55;0.63;;;15.30;47.00;;;;;;4939101;29;20056;-85
2021/04/23 13:27:49;;;;;;;1.27;0.65;;;15.40;46.90;;;;;;4939199;29;20048;-85
2021/04/23 13:30:31;;;;;;;1.77;0.73;;;15.40;45.80;;;;;;4939620;29;20051;-85
2021/04/23 13:32:58;;;;;;;1.10;0.50;;;15.50;46.60;;;;;;4940515;28;20067;-85
2021/04/23 13:35:30;;;;;;;2.72;0.95;;;15.50;46.30;;;;;;4967251;28;20468;-84
2021/04/23 13:37:58;;;;;;;1.20;0.55;;;15.50;47.60;;;;;;4938746;29;20044;-85
2021/04/23 13:40:28;;;;;;;1.20;0.50;;;15.40;47.90;;;;;;4939246;29;20055;-84
2021/04/23 13:43:07;;;;;;;3.80;0.70;;;15.40;45.50;;;;;;4939167;29;20055;-88
2021/04/23 13:45:34;;;;;;;2.95;0.70;;;15.30;45.50;;;;;;4939045;29;20051;-90
2021/04/23 13:48:01;;;;;;;3.45;0.80;;;15.30;45.50;;;;;;4939200;29;20059;-88
2021/04/23 13:50:28;;;;;;;3.67;1.67;;;15.40;47.70;;;;;;4939243;29;20051;-89
2021/04/23 13:52:54;;;;;;;1.80;0.80;;;15.40;48.00;;;;;;4938919;29;20054;-83
2021/04/23 13:55:21;;;;;;;1.63;1.52;;;15.40;47.30;;;;;;4938773;29;20489;-85
2021/04/23 13:58:01;;;;;;;2.55;1.17;;;15.40;47.60;;;;;;4938839;29;20051;-85
2021/04/23 14:00:27;;;;;;;3.50;0.60;;;15.50;48.40;;;;;;4937923;29;20047;-86
2021/04/23 14:03:01;;;;;;;1.52;0.80;;;15.60;47.60;;;;;;4938553;29;20078;-87
2021/04/23 14:05:28;;;;;;;1.23;0.98;;;15.60;48.60;;;;;;4938741;29;20055;-82
2021/04/23 14:07:55;;;;;;;1.42;0.82;;;15.60;48.10;;;;;;4938296;29;20048;-80
2021/04/23 14:10:21;;;;;;;2.30;0.90;;;15.70;47.70;;;;;;4938615;29;20122;-81
2021/04/23 14:12:48;;;;;;;1.60;0.60;;;15.70;47.50;;;;;;4938431;29;20051;-79
2021/04/23 14:15:15;;;;;;;2.78;0.98;;;15.80;47.30;;;;;;4938299;29;20420;-80
2021/04/23 14:17:41;;;;;;;1.63;0.85;;;15.90;48.30;;;;;;4938186;29;20473;-79
2021/04/23 14:20:11;;;;;;;1.27;0.57;;;15.90;48.30;;;;;;4937946;29;20098;-80
2021/04/23 14:22:37;;;;;;;1.48;0.40;;;15.90;47.80;;;;;;4938423;29;20051;-80
2021/04/23 14:25:05;;;;;;;1.08;0.43;;;15.90;47.20;;;;;;4938105;29;20107;-80
2021/04/23 14:27:31;;;;;;;0.68;0.50;;;16.00;46.20;;;;;;4938083;29;20048;-80
2021/04/23 14:29:58;;;;;;;1.05;0.60;;;16.00;46.60;;;;;;4937966;29;20069;-80
2021/04/23 14:32:24;;;;;;;3.63;0.95;;;15.90;46.10;;;;;;4938250;29;20066;-81
2021/04/23 14:34:51;;;;;;;1.73;0.68;;;15.90;47.20;;;;;;4937832;29;20469;-79
2021/04/23 14:37:19;;;;;;;1.80;0.73;;;15.90;47.60;;;;;;4937683;29;20051;-80
2021/04/23 14:39:46;;;;;;;2.05;1.10;;;15.90;46.10;;;;;;4937750;29;20051;-80
2021/04/23 14:42:13;;;;;;;2.25;0.63;;;15.90;46.60;;;;;;4937180;29;20055;-79
2021/04/23 14:44:39;;;;;;;2.03;0.80;;;16.00;47.90;;;;;;4937141;29;20073;-80
2021/04/23 14:47:06;;;;;;;1.60;1.15;;;16.00;47.80;;;;;;4936675;29;20051;-80
2021/04/23 14:49:32;;;;;;;1.70;0.93;;;16.00;48.20;;;;;;4938009;29;20060;-79
2021/04/23 14:51:59;;;;;;;2.38;1.02;;;16.00;47.80;;;;;;4937686;29;20453;-80
2021/04/23 14:54:26;;;;;;;1.67;0.90;;;16.00;48.20;;;;;;4937943;29;20051;-79
2021/04/23 14:56:53;;;;;;;0.95;0.70;;;16.00;47.90;;;;;;4937454;29;20051;-80
2021/04/23 14:59:20;;;;;;;1.25;0.82;;;16.00;48.60;;;;;;4937510;29;20399;-79
2021/04/23 15:01:46;;;;;;;3.05;0.85;;;16.00;48.40;;;;;;4937529;29;20134;-80
2021/04/23 15:04:13;;;;;;;0.93;0.63;;;16.00;47.80;;;;;;4937773;29;20075;-80
2021/04/23 15:06:39;;;;;;;1.23;1.02;;;16.00;47.30;;;;;;4937413;29;20047;-80
2021/04/23 15:09:07;;;;;;;1.77;0.93;;;16.00;49.00;;;;;;4937719;29;20184;-80
2021/04/23 15:11:35;;;;;;;1.70;0.60;;;16.00;48.90;;;;;;4937377;29;20138;-79
2021/04/23 15:14:02;;;;;;;3.72;0.90;;;16.10;46.70;;;;;;4937059;29;20062;-80
2021/04/23 15:16:28;;;;;;;0.55;0.45;;;16.10;47.60;;;;;;4936566;29;20043;-80
2021/04/23 15:18:55;;;;;;;1.52;1.00;;;16.00;47.50;;;;;;4937755;29;20058;-80
2021/04/23 15:21:21;;;;;;;1.75;0.80;;;16.10;47.40;;;;;;4937235;29;20069;-80
2021/04/23 15:23:48;;;;;;;2.90;0.90;;;16.10;46.40;;;;;;4937587;29;20134;-80
2021/04/23 15:26:15;;;;;;;3.83;0.90;;;16.10;47.80;;;;;;4937212;29;20043;-80
2021/04/23 15:28:42;;;;;;;3.45;0.98;;;16.10;48.60;;;;;;4937352;29;20060;-79
2021/04/23 15:31:09;;;;;;;1.90;0.50;;;16.10;47.40;;;;;;4937119;29;20380;-79
2021/04/23 15:33:35;;;;;;;2.75;0.77;;;16.10;46.40;;;;;;4937309;29;20048;-79